Time;durP1;ratioP1;P1;durP2;ratioP2;P2;SDS_P1;SDS_P2;PMS_P1;PMS_P2;Temp;Humidity;BMP_temperature;BMP_pressure;BME280_temperature;BME280_humidity;BME280_pressure;Samples;Min_cycle;Max_cycle;Signal;HPM_P1;HPM_P2
2022/04/14 00:01:35;;;;;;;7.68;3.33;;;;;;;10.29;100.00;95866.50;5013460;28;24444;-74
2022/04/14 00:04:01;;;;;;;8.68;3.75;;;;;;;10.31;100.00;95864.66;5013479;28;24420;-74
2022/04/14 00:06:28;;;;;;;4.28;3.10;;;;;;;10.37;100.00;95864.28;5013343;28;24444;-74
2022/04/14 00:08:56;;;;;;;6.90;3.10;;;;;;;10.38;100.00;95870.28;5013621;28;24424;-75
2022/04/14 00:11:22;;;;;;;5.63;3.08;;;;;;;10.37;100.00;95861.69;5013327;28;24432;-75
2022/04/14 00:13:49;;;;;;;6.50;3.28;;;;;;;10.40;100.00;95864.09;5013105;28;24973;-75
2022/04/14 00:16:15;;;;;;;7.65;3.17;;;;;;;10.46;100.00;95862.91;5013388;28;24436;-74
2022/04/14 00:18:42;;;;;;;7.37;3.20;;;;;;;10.50;100.00;95861.78;5013269;28;24445;-75
2022/04/14 00:21:08;;;;;;;5.82;3.20;;;;;;;10.49;100.00;95864.47;5013023;28;24431;-75
2022/04/14 00:23:34;;;;;;;7.60;3.83;;;;;;;10.46;100.00;95873.28;5013186;28;24842;-74
2022/04/14 00:26:02;;;;;;;7.22;3.55;;;;;;;10.51;100.00;95865.22;5012835;28;24945;-74
2022/04/14 00:28:29;;;;;;;5.75;3.25;;;;;;;10.59;100.00;95865.56;5013052;28;24830;-74
2022/04/14 00:30:55;;;;;;;4.78;2.95;;;;;;;10.52;100.00;95869.47;5012702;28;24455;-74
2022/04/14 00:33:22;;;;;;;8.30;3.03;;;;;;;10.65;100.00;95867.78;5012750;28;24443;-74
2022/04/14 00:35:48;;;;;;;8.52;3.13;;;;;;;10.89;96.97;95866.25;5012733;28;24413;-74
2022/04/14 00:38:14;;;;;;;11.68;3.85;;;;;;;10.39;100.00;95871.97;5012613;28;24449;-74
2022/04/14 00:40:41;;;;;;;5.68;3.00;;;;;;;10.18;100.00;95877.47;5012658;28;24452;-74
2022/04/14 00:43:09;;;;;;;8.33;3.70;;;;;;;10.16;100.00;95873.31;5012831;28;24774;-74
2022/04/14 00:45:35;;;;;;;10.68;3.63;;;;;;;10.31;100.00;95872.44;5012773;28;24798;-75
2022/04/14 00:48:02;;;;;;;9.70;3.90;;;;;;;10.15;100.00;95879.41;5012618;28;24535;-75
2022/04/14 00:50:29;;;;;;;12.32;4.07;;;;;;;10.12;100.00;95874.41;5012171;28;24444;-75
2022/04/14 00:52:55;;;;;;;7.40;3.50;;;;;;;10.21;100.00;95879.03;5012279;28;24440;-75
2022/04/14 00:55:22;;;;;;;13.07;3.47;;;;;;;10.17;100.00;95875.81;5011964;28;25059;-75
2022/04/14 00:57:48;;;;;;;5.60;3.45;;;;;;;10.17;100.00;95877.56;5012166;28;24445;-75
2022/04/14 01:00:16;;;;;;;7.88;4.00;;;;;;;10.21;100.00;95879.03;5012432;28;24495;-75
2022/04/14 01:02:43;;;;;;;8.70;4.25;;;;;;;10.34;100.00;95877.41;5012150;28;24838;-75
2022/04/14 01:05:10;;;;;;;6.68;3.65;;;;;;;10.17;100.00;95880.16;5012015;28;24483;-75
2022/04/14 01:07:38;;;;;;;8.38;3.92;;;;;;;10.21;100.00;95880.81;5012205;28;24849;-75
2022/04/14 01:10:05;;;;;;;9.68;3.72;;;;;;;10.05;100.00;95878.28;5011766;28;25051;-75
2022/04/14 01:12:32;;;;;;;6.70;3.08;;;;;;;10.05;100.00;95878.28;5011702;28;24978;-75
2022/04/14 01:14:59;;;;;;;7.97;3.53;;;;;;;9.98;100.00;95880.41;5011505;28;24448;-75
2022/04/14 01:17:26;;;;;;;10.50;4.07;;;;;;;9.98;100.00;95877.00;5012029;28;24439;-74
2022/04/14 01:19:53;;;;;;;11.00;3.85;;;;;;;9.87;100.00;95883.63;5012006;28;24527;-75
2022/04/14 01:22:24;;;;;;;10.98;3.75;;;;;;;9.80;100.00;95890.06;5011634;28;24440;-75
2022/04/14 01:24:55;;;;;;;8.82;3.75;;;;;;;9.79;100.00;95887.56;5011617;28;24443;-75
2022/04/14 01:27:21;;;;;;;9.20;4.00;;;;;;;9.85;100.00;95877.69;5011731;28;24441;-75
2022/04/14 01:29:51;;;;;;;8.75;3.90;;;;;;;9.80;100.00;95886.66;5011674;28;24436;-74
2022/04/14 01:32:18;;;;;;;8.70;3.90;;;;;;;9.70;100.00;95896.69;5011603;28;24441;-75
2022/04/14 01:34:45;;;;;;;8.93;4.17;;;;;;;9.72;100.00;95887.09;5011786;28;24527;-75
2022/04/14 01:37:11;;;;;;;6.30;3.95;;;;;;;9.79;100.00;95895.31;5011458;28;24842;-75
2022/04/14 01:39:38;;;;;;;8.50;4.70;;;;;;;9.86;100.00;95896.63;5011440;28;24477;-74
2022/04/14 01:42:06;;;;;;;7.67;4.73;;;;;;;9.97;100.00;95890.84;5011357;28;24443;-75
2022/04/14 01:44:33;;;;;;;7.80;4.95;;;;;;;9.87;100.00;95895.72;5011547;28;24791;-75
2022/04/14 01:46:59;;;;;;;9.77;5.22;;;;;;;9.85;100.00;95893.22;5010934;28;24432;-75
2022/04/14 01:49:26;;;;;;;8.30;4.78;;;;;;;9.79;100.00;95893.59;5011363;28;20770;-75
2022/04/14 01:51:52;;;;;;;12.77;4.55;;;;;;;9.67;100.00;95905.44;5010843;28;24445;-75
2022/04/14 01:54:19;;;;;;;7.85;4.38;;;;;;;9.57;100.00;95900.91;5011262;28;24421;-75
2022/04/14 01:56:46;;;;;;;8.52;4.55;;;;;;;9.57;100.00;95906.91;5011340;28;24447;-75
2022/04/14 01:59:14;;;;;;;9.52;4.35;;;;;;;9.58;100.00;95899.97;5010917;28;24526;-75
2022/04/14 02:01:40;;;;;;;13.43;4.05;;;;;;;9.91;100.00;95907.56;5010796;28;24448;-75
2022/04/14 02:04:07;;;;;;;10.13;4.60;;;;;;;9.73;100.00;95912.03;5010941;28;25025;-75
2022/04/14 02:06:34;;;;;;;6.07;3.75;;;;;;;9.53;100.00;95907.16;5011117;28;20838;-75
2022/04/14 02:09:01;;;;;;;8.10;4.13;;;;;;;9.46;100.00;95909.25;5010738;28;24459;-74
2022/04/14 02:11:27;;;;;;;6.63;3.88;;;;;;;9.50;100.00;95910.75;5010225;28;24495;-75
2022/04/14 02:13:53;;;;;;;7.90;4.10;;;;;;;9.47;100.00;95910.09;5011012;28;24429;-75
2022/04/14 02:16:21;;;;;;;7.00;4.05;;;;;;;9.42;100.00;95916.34;5010987;28;24444;-75
2022/04/14 02:18:48;;;;;;;8.48;4.10;;;;;;;9.36;100.00;95916.69;5010780;28;24459;-75
2022/04/14 02:21:14;;;;;;;7.30;4.28;;;;;;;9.38;100.00;95916.59;5010351;28;24444;-75
2022/04/14 02:23:41;;;;;;;19.95;4.65;;;;;;;9.39;100.00;95918.28;5010910;28;20782;-75
2022/04/14 02:26:07;;;;;;;5.20;3.50;;;;;;;9.44;100.00;95919.69;5010884;28;24447;-75
2022/04/14 02:28:34;;;;;;;6.43;3.78;;;;;;;9.49;100.00;95923.75;5010774;28;25011;-75
2022/04/14 02:31:00;;;;;;;8.07;4.00;;;;;;;9.57;100.00;95925.00;5010431;28;24444;-75
2022/04/14 02:33:28;;;;;;;11.50;4.28;;;;;;;9.56;100.00;95925.91;5010687;28;24444;-75
2022/04/14 02:35:54;;;;;;;9.50;4.80;;;;;;;9.55;100.00;95921.66;5010123;28;24766;-75
2022/04/14 02:38:21;;;;;;;6.65;3.97;;;;;;;9.40;100.00;95928.53;5009930;28;24506;-75
2022/04/14 02:40:47;;;;;;;10.27;4.33;;;;;;;9.53;100.00;95923.50;5010058;28;25106;-75
2022/04/14 02:43:14;;;;;;;10.23;5.20;;;;;;;9.57;100.00;95934.53;5010584;28;24436;-75
2022/04/14 02:45:41;;;;;;;12.13;4.82;;;;;;;9.45;100.00;95939.47;5010676;28;24432;-75
2022/04/14 02:48:08;;;;;;;9.63;4.80;;;;;;;9.42;100.00;95936.22;5010374;28;24432;-75
2022/04/14 02:50:36;;;;;;;9.70;4.53;;;;;;;9.40;100.00;95936.28;5022826;22;25119;-76
2022/04/14 02:53:03;;;;;;;8.80;4.45;;;;;;;9.43;100.00;95937.88;5011258;28;20750;-76
2022/04/14 02:55:29;;;;;;;7.35;4.18;;;;;;;9.41;100.00;95937.94;5010847;28;20758;-76
2022/04/14 02:57:56;;;;;;;7.57;4.50;;;;;;;9.40;100.00;95941.44;5013582;28;24425;-76
2022/04/14 03:00:22;;;;;;;10.68;4.65;;;;;;;9.36;100.00;95939.13;4997603;28;25051;-76
2022/04/14 03:02:49;;;;;;;5.85;3.90;;;;;;;9.40;100.00;95938.88;4994718;28;20776;-76
2022/04/14 03:05:15;;;;;;;9.00;4.05;;;;;;;9.41;100.00;95932.75;4995072;28;24472;-76
2022/04/14 03:07:43;;;;;;;16.70;4.38;;;;;;;9.52;100.00;95941.69;4994618;28;24425;-76
2022/04/14 03:10:10;;;;;;;17.40;4.45;;;;;;;9.59;100.00;95943.84;4994998;28;24436;-76
2022/04/14 03:12:40;;;;;;;9.35;5.80;;;;;;;9.67;100.00;95935.66;4994346;28;24441;-77
2022/04/14 03:15:07;;;;;;;7.57;5.50;;;;;;;9.77;100.00;95934.22;4994662;28;24444;-76
2022/04/14 03:17:34;;;;;;;9.95;4.45;;;;;;;10.02;100.00;95944.00;4994534;28;24437;-76
2022/04/14 03:20:00;;;;;;;7.75;4.35;;;;;;;10.07;100.00;95947.13;4994644;28;24453;-76
2022/04/14 03:22:27;;;;;;;9.57;4.53;;;;;;;9.91;100.00;95947.19;4994135;28;24482;-76
2022/04/14 03:24:56;;;;;;;7.68;4.65;;;;;;;9.81;100.00;95951.22;4994439;28;24937;-76
2022/04/14 03:27:23;;;;;;;11.57;7.05;;;;;;;9.97;100.00;95950.34;4994687;28;24432;-76
2022/04/14 03:29:49;;;;;;;9.60;7.00;;;;;;;9.90;100.00;95955.88;4994303;28;24941;-75
2022/04/14 03:32:16;;;;;;;16.08;10.65;;;;;;;9.95;100.00;95950.44;4994444;28;24452;-76
2022/04/14 03:34:42;;;;;;;13.18;9.90;;;;;;;10.00;100.00;95945.00;4978321;28;20784;-76
2022/04/14 03:37:08;;;;;;;15.02;10.15;;;;;;;10.03;100.00;95947.41;4994142;28;25013;-76
2022/04/14 03:39:35;;;;;;;16.40;11.43;;;;;;;10.06;100.00;95942.06;4994462;28;24507;-75
2022/04/14 03:42:03;;;;;;;17.53;12.33;;;;;;;10.16;100.00;95940.63;4994238;28;24487;-76
2022/04/14 03:44:29;;;;;;;14.43;12.52;;;;;;;10.18;100.00;95949.94;4994211;28;24433;-76
2022/04/14 03:46:56;;;;;;;17.08;12.73;;;;;;;10.23;100.00;95944.47;4993953;28;25008;-76
2022/04/14 03:49:22;;;;;;;21.35;13.75;;;;;;;10.28;100.00;95947.69;4994363;28;24428;-76
2022/04/14 03:51:48;;;;;;;18.13;13.37;;;;;;;10.24;100.00;95946.16;4993759;28;24490;-76
2022/04/14 03:54:15;;;;;;;19.90;14.40;;;;;;;10.35;100.00;95943.81;4994250;28;24791;-76
2022/04/14 03:56:42;;;;;;;20.73;14.80;;;;;;;10.36;100.00;95942.06;4994153;28;24429;-76
2022/04/14 03:59:13;;;;;;;20.13;17.58;;;;;;;10.37;100.00;95941.94;4994036;28;24507;-76
2022/04/14 04:01:39;;;;;;;23.95;16.15;;;;;;;10.39;100.00;95947.88;4993724;28;24507;-76
2022/04/14 04:04:06;;;;;;;22.67;19.55;;;;;;;10.47;100.00;95946.59;4994022;28;24444;-76
2022/04/14 04:06:32;;;;;;;21.17;16.67;;;;;;;10.47;100.00;95942.25;4993951;28;24432;-76
2022/04/14 04:08:59;;;;;;;27.33;19.02;;;;;;;10.50;100.00;95938.66;4993324;28;24429;-76
2022/04/14 04:11:26;;;;;;;24.70;19.15;;;;;;;10.52;100.00;95937.63;4993653;28;24838;-76
2022/04/14 04:13:52;;;;;;;30.40;21.85;;;;;;;10.56;100.00;95940.84;4993799;28;24440;-77
2022/04/14 04:16:20;;;;;;;28.23;21.63;;;;;;;10.62;100.00;95940.50;4993487;28;24445;-77
2022/04/14 04:18:46;;;;;;;29.35;21.70;;;;;;;10.71;100.00;95937.34;4993464;28;24485;-77
2022/04/14 04:21:13;;;;;;;27.02;19.98;;;;;;;10.76;100.00;95939.66;4993437;28;24452;-76
2022/04/14 04:23:39;;;;;;;27.27;20.63;;;;;;;10.93;100.00;95946.41;4993691;28;24424;-76
2022/04/14 04:26:05;;;;;;;25.90;21.52;;;;;;;10.96;100.00;95951.41;4993511;28;24432;-76
2022/04/14 04:28:32;;;;;;;28.88;22.38;;;;;;;10.77;100.00;95956.88;4993338;28;24452;-76
2022/04/14 04:30:59;;;;;;;24.42;20.70;;;;;;;10.80;100.00;95959.28;4992501;28;24504;-76
2022/04/14 04:33:27;;;;;;;26.52;21.75;;;;;;;10.70;100.00;95960.75;4992685;28;24437;-76
2022/04/14 04:35:54;;;;;;;27.50;21.77;;;;;;;10.71;100.00;95959.81;4979524;28;24440;-76
2022/04/14 04:38:20;;;;;;;31.77;21.33;;;;;;;10.66;100.00;95960.09;4993291;28;24444;-73
2022/04/14 04:40:47;;;;;;;26.73;20.73;;;;;;;10.62;100.00;95964.63;4991233;28;24480;-77
2022/04/14 04:43:14;;;;;;;25.08;20.10;;;;;;;10.64;100.00;95954.16;4992996;28;24433;-80
2022/04/14 04:45:41;;;;;;;21.95;18.08;;;;;;;10.71;100.00;95960.66;4983087;28;24469;-76
2022/04/14 04:48:07;;;;;;;24.67;19.95;;;;;;;10.70;100.00;95956.41;4993224;28;24417;-76
2022/04/14 04:50:35;;;;;;;31.48;20.70;;;;;;;10.73;100.00;95968.34;4992564;28;24433;-78
2022/04/14 04:53:01;;;;;;;27.05;19.70;;;;;;;10.70;100.00;95966.75;4993265;28;24424;-76
2022/04/14 04:55:28;;;;;;;24.35;18.52;;;;;;;10.74;100.00;95962.22;4984504;28;24453;-76
2022/04/14 04:57:54;;;;;;;33.30;19.50;;;;;;;10.73;100.00;95965.75;4989782;28;24448;-76
2022/04/14 05:00:21;;;;;;;23.60;18.88;;;;;;;10.77;100.00;95964.66;4989392;28;24460;-77
2022/04/14 05:02:47;;;;;;;26.77;21.38;;;;;;;10.66;100.00;95960.09;4992457;28;24437;-76
2022/04/14 05:05:14;;;;;;;28.67;21.53;;;;;;;10.71;100.00;95965.84;4992725;28;24491;-77
2022/04/14 05:07:41;;;;;;;36.63;23.73;;;;;;;10.71;100.00;95971.00;4992864;28;24436;-76
2022/04/14 05:10:09;;;;;;;34.60;22.83;;;;;;;10.81;100.00;95977.31;4992658;28;24437;-76
2022/04/14 05:12:36;;;;;;;26.60;20.60;;;;;;;10.83;100.00;95977.25;4992308;28;24460;-77
2022/04/14 05:15:02;;;;;;;24.60;20.33;;;;;;;10.97;100.00;95973.78;4992493;28;24429;-77
2022/04/14 05:17:29;;;;;;;25.55;21.85;;;;;;;10.95;100.00;95983.44;4992493;28;24457;-77
2022/04/14 05:19:55;;;;;;;30.10;22.00;;;;;;;11.00;100.00;95983.97;4991434;28;24445;-76
2022/04/14 05:22:21;;;;;;;27.35;20.70;;;;;;;11.02;100.00;95985.56;4991737;28;24872;-76
2022/04/14 05:24:49;;;;;;;23.02;18.80;;;;;;;11.13;100.00;95990.09;4992061;28;24420;-76
2022/04/14 05:27:16;;;;;;;24.58;20.23;;;;;;;11.11;100.00;95995.34;4992538;28;24431;-76
2022/04/14 05:29:42;;;;;;;30.00;21.10;;;;;;;11.13;100.00;95995.28;4992226;28;24471;-76
2022/04/14 05:32:10;;;;;;;22.77;19.08;;;;;;;11.26;100.00;95995.34;4991146;28;24452;-77
2022/04/14 05:34:36;;;;;;;28.27;18.90;;;;;;;11.29;100.00;96002.94;4979402;28;24500;-76
2022/04/14 05:37:03;;;;;;;29.40;20.95;;;;;;;11.18;100.00;96000.16;4991236;28;24445;-76
2022/04/14 05:39:29;;;;;;;22.83;18.90;;;;;;;11.19;100.00;96001.81;4990855;28;24990;-77
2022/04/14 05:41:57;;;;;;;22.77;18.50;;;;;;;11.24;100.00;96010.16;4991792;28;24441;-76
2022/04/14 05:44:23;;;;;;;28.30;18.87;;;;;;;11.40;100.00;96008.28;4992117;28;24463;-77
2022/04/14 05:46:50;;;;;;;20.55;17.90;;;;;;;11.48;100.00;96021.59;4991815;28;24444;-77
2022/04/14 05:49:18;;;;;;;18.35;16.48;;;;;;;11.56;100.00;96023.72;4991873;28;24449;-69
2022/04/14 05:51:44;;;;;;;26.35;17.83;;;;;;;11.47;100.00;96032.06;4990811;28;24818;-76
2022/04/14 05:54:11;;;;;;;24.38;18.60;;;;;;;11.46;100.00;96028.66;4991514;28;24440;-75
2022/04/14 05:56:37;;;;;;;24.27;18.23;;;;;;;11.47;100.00;96030.31;4991016;28;24486;-75
2022/04/14 05:59:05;;;;;;;23.73;17.35;;;;;;;11.53;100.00;96022.16;4990834;28;25056;-75
2022/04/14 06:01:31;;;;;;;28.77;19.20;;;;;;;11.44;100.00;96030.50;4990000;28;24452;-75
2022/04/14 06:03:58;;;;;;;27.35;18.90;;;;;;;11.53;100.00;96029.09;4990333;28;24433;-75
2022/04/14 06:06:24;;;;;;;26.65;18.90;;;;;;;11.56;100.00;96034.91;4990365;28;24429;-75
2022/04/14 06:08:51;;;;;;;31.25;20.48;;;;;;;11.72;100.00;96042.59;4990510;28;24444;-75
2022/04/14 06:11:18;;;;;;;24.27;18.75;;;;;;;11.96;100.00;96045.41;4989745;28;24868;-75
2022/04/14 06:13:45;;;;;;;27.40;18.17;;;;;;;12.09;100.00;96041.13;4991246;28;24451;-76
2022/04/14 06:16:12;;;;;;;21.77;16.02;;;;;;;12.17;100.00;96043.22;4990901;28;24444;-75
2022/04/14 06:18:39;;;;;;;23.33;17.88;;;;;;;12.28;100.00;96051.13;4990745;28;24843;-75
2022/04/14 06:21:05;;;;;;;25.10;16.80;;;;;;;12.38;100.00;96047.91;4990564;28;24464;-74
2022/04/14 06:23:32;;;;;;;25.55;17.67;;;;;;;12.41;100.00;96042.53;4991004;28;24447;-74
2022/04/14 06:25:58;;;;;;;24.38;17.13;;;;;;;12.34;100.00;96047.28;4990575;28;24799;-74
2022/04/14 06:28:25;;;;;;;28.13;17.80;;;;;;;12.19;100.00;96046.53;4990770;28;24444;-74
2022/04/14 06:30:51;;;;;;;21.80;17.67;;;;;;;12.24;100.00;96046.25;4989285;28;24950;-74
2022/04/14 06:33:20;;;;;;;25.57;18.87;;;;;;;12.40;100.00;96039.09;4990633;28;24491;-74
2022/04/14 06:35:47;;;;;;;27.98;19.17;;;;;;;12.53;100.00;96047.78;4990030;28;24470;-75
2022/04/14 06:38:14;;;;;;;23.33;17.98;;;;;;;12.47;100.00;96040.38;4991026;28;24440;-74
2022/04/14 06:40:40;;;;;;;22.02;17.67;;;;;;;12.60;100.00;96040.38;4990306;28;25009;-75
2022/04/14 06:43:06;;;;;;;23.58;18.30;;;;;;;12.42;100.00;96047.66;4987852;28;25093;-74
2022/04/14 06:45:33;;;;;;;33.43;19.00;;;;;;;12.39;100.00;96044.41;4990242;28;24437;-74
2022/04/14 06:48:00;;;;;;;23.00;19.17;;;;;;;12.42;100.00;96037.25;4990193;28;24437;-74
2022/04/14 06:50:28;;;;;;;28.65;19.38;;;;;;;12.44;100.00;96039.75;4989488;28;25005;-75
2022/04/14 06:52:55;;;;;;;26.17;19.67;;;;;;;12.58;100.00;96039.66;4989656;28;25009;-73
2022/04/14 06:55:22;;;;;;;30.13;19.95;;;;;;;12.53;100.00;96044.31;4990340;28;24440;-75
2022/04/14 06:57:48;;;;;;;24.98;19.20;;;;;;;12.47;100.00;96040.38;4990412;28;24437;-75
2022/04/14 07:00:16;;;;;;;23.40;19.77;;;;;;;12.62;100.00;96050.69;4989407;28;24503;-74
2022/04/14 07:02:46;;;;;;;34.13;20.15;;;;;;;12.69;100.00;96044.97;4991339;28;24989;-74
2022/04/14 07:05:13;;;;;;;26.77;20.15;;;;;;;12.65;100.00;96051.31;4982744;28;24496;-74
2022/04/14 07:07:40;;;;;;;27.05;19.75;;;;;;;12.87;100.00;96044.66;4978864;28;25012;-74
2022/04/14 07:10:08;;;;;;;27.70;19.67;;;;;;;12.89;100.00;96043.63;4989579;28;24835;-74
2022/04/14 07:12:35;;;;;;;25.88;19.25;;;;;;;12.93;100.00;96044.25;4991507;28;24425;-74
2022/04/14 07:15:02;;;;;;;26.10;20.27;;;;;;;12.96;100.00;96047.47;4988856;28;24441;-74
2022/04/14 07:17:28;;;;;;;24.33;19.80;;;;;;;12.91;100.00;96049.56;4981042;28;24872;-74
2022/04/14 07:19:57;;;;;;;28.33;19.80;;;;;;;12.91;100.00;96061.75;4986530;28;24457;-73
2022/04/14 07:22:23;;;;;;;27.63;20.88;;;;;;;12.98;100.00;96044.78;4981816;28;24441;-75
2022/04/14 07:24:51;;;;;;;24.67;19.90;;;;;;;12.96;100.00;96041.44;4977905;28;24444;-74
2022/04/14 07:27:20;;;;;;;28.38;20.90;;;;;;;13.10;100.00;96053.53;4986876;28;24773;-74
2022/04/14 07:29:47;;;;;;;24.03;19.07;;;;;;;13.22;100.00;96061.31;4984360;28;24437;-74
2022/04/14 07:32:14;;;;;;;29.23;20.58;;;;;;;13.17;100.00;96062.56;4985096;28;24856;-74
2022/04/14 07:34:40;;;;;;;29.88;20.27;;;;;;;13.13;100.00;96056.75;4991553;28;24441;-74
2022/04/14 07:37:07;;;;;;;33.28;21.05;;;;;;;13.24;100.00;96064.69;4985523;28;24617;-74
2022/04/14 07:39:33;;;;;;;25.23;18.45;;;;;;;13.55;100.00;96058.16;4981971;28;24441;-74
2022/04/14 07:42:01;;;;;;;27.92;19.05;;;;;;;13.55;100.00;96063.38;4988648;28;24440;-74
2022/04/14 07:44:28;;;;;;;31.10;18.23;;;;;;;13.61;100.00;96069.94;4991881;28;24548;-74
2022/04/14 07:46:55;;;;;;;26.20;18.42;;;;;;;13.61;100.00;96069.06;4994156;28;24445;-74
2022/04/14 07:49:21;;;;;;;26.85;19.15;;;;;;;13.72;100.00;96075.22;4992644;28;24528;-73
2022/04/14 07:51:48;;;;;;;22.48;17.98;;;;;;;13.85;100.00;96069.13;4991316;28;24437;-72
2022/04/14 07:54:14;;;;;;;25.20;18.83;;;;;;;13.95;100.00;96068.38;4994116;28;24528;-75
2022/04/14 07:56:41;;;;;;;29.20;18.48;;;;;;;14.35;100.00;96069.84;4993687;28;24799;-75
2022/04/14 07:59:09;;;;;;;27.98;19.20;;;;;;;14.57;100.00;96069.13;4987188;28;24437;-74
2022/04/14 08:01:35;;;;;;;23.83;18.38;;;;;;;14.76;100.00;96075.50;4994438;28;24467;-74
2022/04/14 08:04:02;;;;;;;23.00;18.80;;;;;;;14.71;100.00;96071.56;4995459;28;24437;-74
2022/04/14 08:06:31;;;;;;;24.38;18.50;;;;;;;14.93;100.00;96081.22;4995534;28;24444;-74
2022/04/14 08:08:57;;;;;;;23.00;17.20;;;;;;;15.20;100.00;96076.53;4988050;28;24576;-74
2022/04/14 08:11:24;;;;;;;24.53;17.80;;;;;;;15.21;100.00;96080.81;4983350;28;24456;-74
2022/04/14 08:13:50;;;;;;;23.85;16.85;;;;;;;15.75;100.00;96083.66;4990519;28;24452;-74
2022/04/14 08:16:18;;;;;;;21.52;17.25;;;;;;;15.61;100.00;96088.19;4980143;28;24442;-74
2022/04/14 08:18:44;;;;;;;24.63;16.80;;;;;;;15.37;100.00;96085.66;4985049;28;24994;-74
2022/04/14 08:21:11;;;;;;;20.08;14.90;;;;;;;16.00;100.00;96086.00;4986073;28;24986;-74
2022/04/14 08:23:39;;;;;;;21.07;16.20;;;;;;;16.10;99.08;96091.34;4986228;28;24444;-74
2022/04/14 08:26:09;;;;;;;26.08;15.27;;;;;;;16.09;100.00;96076.59;4985692;28;24499;-74
2022/04/14 08:28:40;;;;;;;22.65;15.38;;;;;;;16.33;97.86;96081.66;4986483;28;24507;-74
2022/04/14 08:31:07;;;;;;;26.17;15.13;;;;;;;16.66;95.80;96078.09;4985687;28;24441;-75
2022/04/14 08:33:35;;;;;;;23.35;15.38;;;;;;;16.08;96.84;96081.00;4985720;28;24851;-74
2022/04/14 08:36:03;;;;;;;20.60;15.93;;;;;;;15.97;97.75;96081.03;4983655;28;24440;-73
2022/04/14 08:38:29;;;;;;;21.80;15.77;;;;;;;16.13;97.85;96081.50;4984961;28;24869;-74
2022/04/14 08:41:00;;;;;;;19.45;15.02;;;;;;;15.97;100.00;96079.25;4989502;28;24489;-74
2022/04/14 08:43:33;;;;;;;18.92;14.88;;;;;;;16.22;99.29;96085.13;4987510;28;24564;-75
2022/04/14 08:46:00;;;;;;;18.50;13.98;;;;;;;16.30;98.18;96087.94;4982510;28;24477;-75
2022/04/14 08:48:28;;;;;;;20.02;15.05;;;;;;;16.49;96.10;96089.91;4980108;28;24436;-75
2022/04/14 08:50:56;;;;;;;23.98;14.50;;;;;;;16.50;93.91;96091.59;4984360;28;24445;-74
2022/04/14 08:53:25;;;;;;;22.40;12.77;;;;;;;17.13;92.45;96089.00;4985043;28;24496;-75
2022/04/14 08:55:52;;;;;;;18.35;13.27;;;;;;;17.09;91.10;96090.22;4981848;28;24429;-75
2022/04/14 08:58:26;;;;;;;19.63;12.70;;;;;;;17.26;92.74;96088.81;4987571;28;24444;-77
2022/04/14 09:00:53;;;;;;;22.30;13.57;;;;;;;17.65;92.58;96095.91;4990243;28;25041;-78
2022/04/14 09:03:20;;;;;;;18.77;11.80;;;;;;;17.60;83.91;96095.47;4987676;28;24440;-79
2022/04/14 09:05:47;;;;;;;16.67;11.68;;;;;;;17.71;83.48;96093.72;4982783;28;24436;-77
2022/04/14 09:08:15;;;;;;;20.63;12.18;;;;;;;17.48;88.58;96088.66;4982738;28;24441;-78
2022/04/14 09:10:42;;;;;;;16.97;11.10;;;;;;;17.82;85.82;96088.41;4985327;28;24840;-77
2022/04/14 09:13:11;;;;;;;15.18;11.18;;;;;;;18.50;88.23;96085.91;4985162;28;24429;-79
2022/04/14 09:15:38;;;;;;;13.53;10.53;;;;;;;18.54;90.84;96097.78;4981378;28;24441;-76
2022/04/14 09:18:07;;;;;;;16.33;9.90;;;;;;;18.27;83.98;96093.22;4982868;28;24488;-76
2022/04/14 09:20:36;;;;;;;18.90;11.63;;;;;;;18.41;79.81;96098.06;4984975;28;24461;-78
2022/04/14 09:23:21;;;;;;;15.68;10.38;;;;;;;18.88;85.99;96095.63;4991671;28;24496;-76
2022/04/14 09:25:52;;;;;;;13.55;10.05;;;;;;;18.70;79.80;96092.84;4992186;28;24814;-78
2022/04/14 09:28:21;;;;;;;13.15;9.18;;;;;;;18.58;85.46;96093.94;4986118;28;24436;-78
2022/04/14 09:30:59;;;;;;;19.05;9.65;;;;;;;19.32;86.29;96088.09;4991477;28;24441;-78
2022/04/14 09:33:25;;;;;;;13.77;10.05;;;;;;;18.67;80.20;96094.91;4992502;28;24429;-78
2022/04/14 09:36:05;;;;;;;14.93;9.13;;;;;;;18.58;89.49;96100.00;4991970;28;25063;-76
2022/04/14 09:38:49;;;;;;;14.93;9.95;;;;;;;19.69;81.78;96095.16;4992116;28;24444;-79
2022/04/14 09:41:30;;;;;;;13.80;9.30;;;;;;;19.41;78.07;96087.22;4986782;28;24483;-78
2022/04/14 09:43:58;;;;;;;16.20;9.32;;;;;;;18.76;78.68;96101.97;4992202;28;24437;-78
2022/04/14 09:46:25;;;;;;;13.13;8.85;;;;;;;18.81;79.18;96100.59;4993230;28;24424;-79
2022/04/14 09:49:06;;;;;;;17.88;8.82;;;;;;;19.42;83.24;96083.63;4990310;28;25776;-81
2022/04/14 09:51:35;;;;;;;11.52;8.30;;;;;;;19.96;83.83;96079.41;4974865;28;24858;-77
2022/04/14 09:54:15;;;;;;;15.70;8.95;;;;;;;20.50;79.85;96085.59;4991725;28;24460;-77
2022/04/14 09:56:46;;;;;;;17.58;8.98;;;;;;;20.39;73.75;96084.97;4991878;28;24444;-76
2022/04/14 09:59:15;;;;;;;17.50;10.13;;;;;;;19.95;74.53;96084.81;4988284;28;24461;-77
2022/04/14 10:01:42;;;;;;;12.50;8.93;;;;;;;20.13;78.15;96080.41;4990047;28;25122;-77
2022/04/14 10:04:28;;;;;;;15.85;8.60;;;;;;;19.67;72.38;96078.72;4990415;28;24429;-77
2022/04/14 10:07:03;;;;;;;11.52;7.30;;;;;;;19.65;80.68;96080.66;4990932;28;24456;-77
2022/04/14 10:09:31;;;;;;;13.82;8.70;;;;;;;20.01;76.36;96079.78;4991481;28;24516;-77
2022/04/14 10:11:58;;;;;;;12.18;7.90;;;;;;;19.18;75.16;96078.84;4991022;28;25017;-77
2022/04/14 10:14:25;;;;;;;16.42;7.50;;;;;;;19.46;75.21;96078.91;4991803;28;24440;-77
2022/04/14 10:16:52;;;;;;;11.60;7.17;;;;;;;19.47;77.25;96081.41;4991470;28;24428;-77
2022/04/14 10:19:19;;;;;;;18.35;8.52;;;;;;;19.34;78.30;96075.63;4991343;28;25000;-77
2022/04/14 10:21:46;;;;;;;12.45;8.40;;;;;;;19.29;72.08;96081.31;4991248;28;24461;-77
2022/04/14 10:24:13;;;;;;;12.65;7.32;;;;;;;19.69;71.85;96087.28;4991568;28;24428;-77
2022/04/14 10:26:41;;;;;;;11.75;7.68;;;;;;;19.37;71.46;96082.41;4991338;28;24437;-77
2022/04/14 10:29:09;;;;;;;14.45;7.10;;;;;;;20.09;73.37;96084.31;4991452;28;24460;-77
2022/04/14 10:31:36;;;;;;;11.73;7.00;;;;;;;19.20;71.23;96089.19;4991299;28;24690;-77
2022/04/14 10:34:04;;;;;;;13.43;7.50;;;;;;;19.50;71.63;96083.72;4991101;28;24441;-77
2022/04/14 10:36:32;;;;;;;14.20;8.40;;;;;;;18.83;74.22;96082.91;4991311;28;24427;-77
2022/04/14 10:39:00;;;;;;;15.68;8.23;;;;;;;19.44;73.95;96071.19;4991398;28;24906;-76
2022/04/14 10:41:30;;;;;;;11.73;6.93;;;;;;;19.56;74.45;96083.16;4990530;28;24472;-76
2022/04/14 10:44:02;;;;;;;9.65;7.25;;;;;;;19.20;73.00;96078.69;4991155;28;24467;-76
2022/04/14 10:46:32;;;;;;;12.85;8.68;;;;;;;19.14;73.32;96084.53;4991164;28;24424;-76
2022/04/14 10:49:11;;;;;;;15.65;8.38;;;;;;;19.82;73.45;96082.53;4991102;28;24432;-77
2022/04/14 10:51:39;;;;;;;14.77;8.13;;;;;;;19.32;72.92;96074.97;4990834;28;24469;-75
2022/04/14 10:54:07;;;;;;;12.95;7.97;;;;;;;19.10;72.93;96079.56;4990646;28;24439;-75
2022/04/14 10:56:51;;;;;;;13.00;8.67;;;;;;;19.44;73.10;96080.88;4991711;28;24487;-75
2022/04/14 10:59:21;;;;;;;14.63;8.48;;;;;;;19.08;73.23;96076.25;4990983;28;24473;-77
2022/04/14 11:01:57;;;;;;;12.50;7.80;;;;;;;18.98;75.67;96083.28;4990533;28;24460;-76
2022/04/14 11:04:28;;;;;;;17.60;8.90;;;;;;;18.56;72.06;96083.56;4971464;28;25032;-77
2022/04/14 11:06:57;;;;;;;12.98;7.97;;;;;;;18.68;74.05;96088.69;4972472;28;24424;-77
2022/04/14 11:09:49;;;;;;;18.37;9.07;;;;;;;18.41;74.83;96084.94;4991036;28;24523;-77
2022/04/14 11:12:18;;;;;;;17.13;8.13;;;;;;;19.03;74.21;96088.16;4990742;28;24449;-77
2022/04/14 11:14:48;;;;;;;17.83;8.98;;;;;;;19.14;72.94;96085.38;4990039;28;24561;-78
2022/04/14 11:17:52;;;;;;;15.77;8.90;;;;;;;19.12;73.03;96087.28;4986718;28;24444;-76
2022/04/14 11:20:21;;;;;;;17.90;9.43;;;;;;;18.82;71.51;96089.13;4989301;28;24433;-77
2022/04/14 11:23:03;;;;;;;14.07;8.32;;;;;;;18.94;73.56;96089.78;4994259;28;24503;-77